sensor_id;sensor_type;location;lat;lon;timestamp;temperature;humidity
11583;DHT22;34299;50.820;4.548;2024-03-25T00:01:04;3.90;99.90
11583;DHT22;34299;50.820;4.548;2024-03-25T00:03:30;4.00;99.90
11583;DHT22;34299;50.820;4.548;2024-03-25T00:05:57;3.90;99.90
11583;DHT22;34299;50.820;4.548;2024-03-25T00:08:23;3.80;99.90
11583;DHT22;34299;50.820;4.548;2024-03-25T00:10:51;3.80;99.90
11583;DHT22;34299;50.820;4.548;2024-03-25T00:13:17;3.80;99.90
11583;DHT22;34299;50.820;4.548;2024-03-25T08:04:17;3.70;99.90
11583;DHT22;34299;50.820;4.548;2024-03-25T08:06:44;6.30;99.90
11583;DHT22;34299;50.820;4.548;2024-03-25T08:09:10;6.30;99.90
11583;DHT22;34299;50.820;4.548;2024-03-25T08:11:36;6.30;99.90
11583;DHT22;34299;50.820;4.548;2024-03-25T08:14:02;6.40;99.90
11583;DHT22;34299;50.820;4.548;2024-03-25T08:16:27;6.60;99.90
11583;DHT22;34299;50.820;4.548;2024-03-25T08:18:53;6.60;99.90
11583;DHT22;34299;50.820;4.548;2024-03-25T08:21:19;6.80;99.90
11583;DHT22;34299;50.820;4.548;2024-03-25T08:23:47;6.80;99.90
11583;DHT22;34299;50.820;4.548;2024-03-25T08:26:13;6.90;99.90
11583;DHT22;34299;50.820;4.548;2024-03-25T08:28:39;7.00;99.90
11583;DHT22;34299;50.820;4.548;2024-03-25T08:31:05;7.00;99.90
11583;DHT22;34299;50.820;4.548;2024-03-25T08:33:31;7.00;99.90
11583;DHT22;34299;50.820;4.548;2024-03-25T08:35:57;7.10;99.90
11583;DHT22;34299;50.820;4.548;2024-03-25T08:38:23;7.10;99.90
11583;DHT22;34299;50.820;4.548;2024-03-25T08:40:50;7.30;99.90
11583;DHT22;34299;50.820;4.548;2024-03-25T08:43:17;7.40;99.90
11583;DHT22;34299;50.820;4.548;2024-03-25T08:45:43;7.60;99.90
11583;DHT22;34299;50.820;4.548;2024-03-25T08:48:09;7.70;99.90
11583;DHT22;34299;50.820;4.548;2024-03-25T08:50:35;8.00;99.90
11583;DHT22;34299;50.820;4.548;2024-03-25T08:53:01;7.70;99.90
11583;DHT22;34299;50.820;4.548;2024-03-25T08:55:28;7.80;99.90
11583;DHT22;34299;50.820;4.548;2024-03-25T08:57:55;7.90;99.90
11583;DHT22;34299;50.820;4.548;2024-03-25T09:00:22;8.00;99.90
11583;DHT22;34299;50.820;4.548;2024-03-25T09:02:48;7.90;99.90
11583;DHT22;34299;50.820;4.548;2024-03-25T09:05:14;7.90;99.90
11583;DHT22;34299;50.820;4.548;2024-03-25T09:07:40;8.00;99.90
11583;DHT22;34299;50.820;4.548;2024-03-25T09:10:06;8.10;99.90
11583;DHT22;34299;50.820;4.548;2024-03-25T09:12:51;8.30;99.90
11583;DHT22;34299;50.820;4.548;2024-03-25T09:15:18;8.60;99.90
11583;DHT22;34299;50.820;4.548;2024-03-25T09:17:44;8.70;99.90
11583;DHT22;34299;50.820;4.548;2024-03-25T09:20:10;8.80;99.90
11583;DHT22;34299;50.820;4.548;2024-03-25T09:22:36;8.80;99.90
11583;DHT22;34299;50.820;4.548;2024-03-25T09:25:03;8.80;99.90
11583;DHT22;34299;50.820;4.548;2024-03-25T09:27:29;9.10;99.90
11583;DHT22;34299;50.820;4.548;2024-03-25T09:29:55;9.00;99.90
11583;DHT22;34299;50.820;4.548;2024-03-25T09:32:22;9.20;99.90
11583;DHT22;34299;50.820;4.548;2024-03-25T09:34:48;9.30;99.90
11583;DHT22;34299;50.820;4.548;2024-03-25T09:37:14;9.40;99.90
11583;DHT22;34299;50.820;4.548;2024-03-25T09:39:40;9.40;99.90
11583;DHT22;34299;50.820;4.548;2024-03-25T09:42:08;9.50;99.90
11583;DHT22;34299;50.820;4.548;2024-03-25T09:44:34;9.60;99.90
11583;DHT22;34299;50.820;4.548;2024-03-25T09:47:00;9.80;99.90
11583;DHT22;34299;50.820;4.548;2024-03-25T09:49:28;9.90;99.90
11583;DHT22;34299;50.820;4.548;2024-03-25T09:51:55;10.00;99.90
11583;DHT22;34299;50.820;4.548;2024-03-25T09:54:21;10.30;99.90
11583;DHT22;34299;50.820;4.548;2024-03-25T09:56:49;10.30;99.90
11583;DHT22;34299;50.820;4.548;2024-03-25T09:59:15;10.20;99.90
11583;DHT22;34299;50.820;4.548;2024-03-25T10:01:42;10.50;99.90
11583;DHT22;34299;50.820;4.548;2024-03-25T10:04:08;10.60;99.90
11583;DHT22;34299;50.820;4.548;2024-03-25T10:06:36;10.70;99.90
11583;DHT22;34299;50.820;4.548;2024-03-25T10:09:05;10.90;99.90
11583;DHT22;34299;50.820;4.548;2024-03-25T10:11:31;11.00;99.90
11583;DHT22;34299;50.820;4.548;2024-03-25T10:13:58;11.00;99.90
11583;DHT22;34299;50.820;4.548;2024-03-25T10:16:24;11.20;99.90
11583;DHT22;34299;50.820;4.548;2024-03-25T10:18:49;10.90;99.90
11583;DHT22;34299;50.820;4.548;2024-03-25T10:21:19;10.90;99.90
11583;DHT22;34299;50.820;4.548;2024-03-25T10:23:47;11.00;99.90
11583;DHT22;34299;50.820;4.548;2024-03-25T10:26:29;11.10;99.90
11583;DHT22;34299;50.820;4.548;2024-03-25T10:29:01;11.40;99.90
11583;DHT22;34299;50.820;4.548;2024-03-25T10:31:28;11.60;99.90
11583;DHT22;34299;50.820;4.548;2024-03-25T10:33:54;11.50;99.90
11583;DHT22;34299;50.820;4.548;2024-03-25T10:36:21;11.70;99.90
11583;DHT22;34299;50.820;4.548;2024-03-25T10:38:53;11.70;99.90
11583;DHT22;34299;50.820;4.548;2024-03-25T10:41:21;12.00;99.90
11583;DHT22;34299;50.820;4.548;2024-03-25T10:43:47;12.00;99.90
11583;DHT22;34299;50.820;4.548;2024-03-25T10:46:18;11.80;99.90
11583;DHT22;34299;50.820;4.548;2024-03-25T10:48:51;12.10;99.90
11583;DHT22;34299;50.820;4.548;2024-03-25T10:51:20;12.40;99.90
11583;DHT22;34299;50.820;4.548;2024-03-25T10:53:51;12.60;99.90
11583;DHT22;34299;50.820;4.548;2024-03-25T10:56:20;12.50;99.90
11583;DHT22;34299;50.820;4.548;2024-03-25T10:58:48;12.00;99.90
11583;DHT22;34299;50.820;4.548;2024-03-25T11:01:16;11.70;99.90
11583;DHT22;34299;50.820;4.548;2024-03-25T11:03:42;11.90;99.90
11583;DHT22;34299;50.820;4.548;2024-03-25T11:06:08;12.10;99.90
11583;DHT22;34299;50.820;4.548;2024-03-25T11:08:34;12.90;99.90
11583;DHT22;34299;50.820;4.548;2024-03-25T11:11:02;13.60;99.90
11583;DHT22;34299;50.820;4.548;2024-03-25T11:13:28;13.60;99.90
11583;DHT22;34299;50.820;4.548;2024-03-25T11:15:54;13.10;99.90
11583;DHT22;34299;50.820;4.548;2024-03-25T11:18:23;12.80;99.90
11583;DHT22;34299;50.820;4.548;2024-03-25T11:21:00;12.70;99.90
11583;DHT22;34299;50.820;4.548;2024-03-25T11:23:26;12.80;99.90
11583;DHT22;34299;50.820;4.548;2024-03-25T11:25:55;13.50;99.90
11583;DHT22;34299;50.820;4.548;2024-03-25T11:28:28;13.80;99.90
11583;DHT22;34299;50.820;4.548;2024-03-25T11:30:55;14.20;99.90
11583;DHT22;34299;50.820;4.548;2024-03-25T11:33:21;14.50;99.90
11583;DHT22;34299;50.820;4.548;2024-03-25T11:35:46;14.70;99.90
11583;DHT22;34299;50.820;4.548;2024-03-25T11:38:12;15.30;99.90
11583;DHT22;34299;50.820;4.548;2024-03-25T11:40:41;15.30;99.90
11583;DHT22;34299;50.820;4.548;2024-03-25T11:43:08;15.90;99.90
11583;DHT22;34299;50.820;4.548;2024-03-25T11:45:35;16.30;99.90
11583;DHT22;34299;50.820;4.548;2024-03-25T11:48:02;16.30;99.90
11583;DHT22;34299;50.820;4.548;2024-03-25T11:50:28;16.00;99.90
11583;DHT22;34299;50.820;4.548;2024-03-25T11:52:54;15.60;99.90
11583;DHT22;34299;50.820;4.548;2024-03-25T11:55:20;15.50;99.90
11583;DHT22;34299;50.820;4.548;2024-03-25T11:57:46;15.90;99.90
11583;DHT22;34299;50.820;4.548;2024-03-25T12:00:12;16.10;99.90
11583;DHT22;34299;50.820;4.548;2024-03-25T12:02:42;16.40;99.90
11583;DHT22;34299;50.820;4.548;2024-03-25T12:05:09;16.60;99.90
11583;DHT22;34299;50.820;4.548;2024-03-25T12:07:35;16.30;99.90
11583;DHT22;34299;50.820;4.548;2024-03-25T12:10:01;15.50;99.90
11583;DHT22;34299;50.820;4.548;2024-03-25T12:12:45;15.10;99.90
11583;DHT22;34299;50.820;4.548;2024-03-25T12:15:11;14.90;99.90
11583;DHT22;34299;50.820;4.548;2024-03-25T12:17:37;14.90;99.90
11583;DHT22;34299;50.820;4.548;2024-03-25T12:20:06;14.80;99.90
11583;DHT22;34299;50.820;4.548;2024-03-25T12:22:33;15.20;99.90
11583;DHT22;34299;50.820;4.548;2024-03-25T12:25:00;15.90;99.90
11583;DHT22;34299;50.820;4.548;2024-03-25T12:27:28;16.40;99.90
11583;DHT22;34299;50.820;4.548;2024-03-25T12:29:58;17.00;99.90
11583;DHT22;34299;50.820;4.548;2024-03-25T12:32:37;17.00;99.90
11583;DHT22;34299;50.820;4.548;2024-03-25T12:35:05;17.50;99.90
11583;DHT22;34299;50.820;4.548;2024-03-25T12:37:32;17.50;99.90
11583;DHT22;34299;50.820;4.548;2024-03-25T12:39:58;17.60;99.90
11583;DHT22;34299;50.820;4.548;2024-03-25T12:42:25;17.20;99.90
11583;DHT22;34299;50.820;4.548;2024-03-25T12:44:51;16.30;99.90
11583;DHT22;34299;50.820;4.548;2024-03-25T12:47:17;16.20;99.90
11583;DHT22;34299;50.820;4.548;2024-03-25T12:49:43;16.00;99.90
11583;DHT22;34299;50.820;4.548;2024-03-25T12:52:11;16.00;99.90
11583;DHT22;34299;50.820;4.548;2024-03-25T12:54:37;16.60;99.90
11583;DHT22;34299;50.820;4.548;2024-03-25T12:57:03;16.70;99.90
11583;DHT22;34299;50.820;4.548;2024-03-25T12:59:29;16.70;99.90
11583;DHT22;34299;50.820;4.548;2024-03-25T13:01:55;17.10;99.90
11583;DHT22;34299;50.820;4.548;2024-03-25T13:04:21;17.70;99.90
11583;DHT22;34299;50.820;4.548;2024-03-25T13:06:47;17.70;99.90
11583;DHT22;34299;50.820;4.548;2024-03-25T13:09:15;16.60;99.90
11583;DHT22;34299;50.820;4.548;2024-03-25T13:11:41;15.80;99.90
11583;DHT22;34299;50.820;4.548;2024-03-25T13:14:07;15.90;99.90
11583;DHT22;34299;50.820;4.548;2024-03-25T13:16:33;15.30;99.90
11583;DHT22;34299;50.820;4.548;2024-03-25T13:18:59;16.30;99.90
11583;DHT22;34299;50.820;4.548;2024-03-25T13:21:25;17.10;99.90
11583;DHT22;34299;50.820;4.548;2024-03-25T13:23:51;18.00;99.90
11583;DHT22;34299;50.820;4.548;2024-03-25T13:26:19;18.80;99.90
11583;DHT22;34299;50.820;4.548;2024-03-25T13:28:45;18.80;99.90
11583;DHT22;34299;50.820;4.548;2024-03-25T13:31:11;18.80;99.90
11583;DHT22;34299;50.820;4.548;2024-03-25T13:33:37;18.80;99.90
11583;DHT22;34299;50.820;4.548;2024-03-25T13:36:04;19.10;99.90
11583;DHT22;34299;50.820;4.548;2024-03-25T13:38:30;18.90;99.90
11583;DHT22;34299;50.820;4.548;2024-03-25T13:40:56;18.30;99.90
11583;DHT22;34299;50.820;4.548;2024-03-25T13:43:23;18.80;99.90
11583;DHT22;34299;50.820;4.548;2024-03-25T13:45:49;19.00;99.90
11583;DHT22;34299;50.820;4.548;2024-03-25T13:48:16;18.50;99.90
11583;DHT22;34299;50.820;4.548;2024-03-25T13:50:42;18.40;99.90
11583;DHT22;34299;50.820;4.548;2024-03-25T13:53:08;18.10;99.90
11583;DHT22;34299;50.820;4.548;2024-03-25T13:55:35;18.20;99.90
11583;DHT22;34299;50.820;4.548;2024-03-25T13:58:01;19.10;99.90
11583;DHT22;34299;50.820;4.548;2024-03-25T14:00:28;19.70;99.90
11583;DHT22;34299;50.820;4.548;2024-03-25T14:02:57;20.20;99.90
11583;DHT22;34299;50.820;4.548;2024-03-25T14:05:23;20.40;99.90
11583;DHT22;34299;50.820;4.548;2024-03-25T14:07:49;20.40;99.90
11583;DHT22;34299;50.820;4.548;2024-03-25T14:10:15;20.50;99.90
11583;DHT22;34299;50.820;4.548;2024-03-25T14:12:41;19.50;99.90
11583;DHT22;34299;50.820;4.548;2024-03-25T14:15:08;19.50;99.90
11583;DHT22;34299;50.820;4.548;2024-03-25T14:17:36;19.90;99.90
11583;DHT22;34299;50.820;4.548;2024-03-25T14:20:02;19.80;99.90
11583;DHT22;34299;50.820;4.548;2024-03-25T14:22:29;20.00;99.90
11583;DHT22;34299;50.820;4.548;2024-03-25T14:24:55;20.40;99.90
11583;DHT22;34299;50.820;4.548;2024-03-25T14:27:22;21.00;99.90
11583;DHT22;34299;50.820;4.548;2024-03-25T14:29:48;20.50;99.90
11583;DHT22;34299;50.820;4.548;2024-03-25T14:32:14;21.20;98.80
11583;DHT22;34299;50.820;4.548;2024-03-25T14:34:42;21.50;98.50
11583;DHT22;34299;50.820;4.548;2024-03-25T14:37:08;22.00;98.20
11583;DHT22;34299;50.820;4.548;2024-03-25T14:39:34;21.90;98.80
11583;DHT22;34299;50.820;4.548;2024-03-25T14:42:00;21.90;98.80
11583;DHT22;34299;50.820;4.548;2024-03-25T14:44:26;23.30;98.40
11583;DHT22;34299;50.820;4.548;2024-03-25T14:46:52;23.40;96.40
11583;DHT22;34299;50.820;4.548;2024-03-25T14:49:18;20.70;97.20
11583;DHT22;34299;50.820;4.548;2024-03-25T14:51:45;22.20;97.50
11583;DHT22;34299;50.820;4.548;2024-03-25T14:54:11;22.50;96.10
11583;DHT22;34299;50.820;4.548;2024-03-25T14:56:37;22.30;95.50
11583;DHT22;34299;50.820;4.548;2024-03-25T14:59:03;22.60;95.60
11583;DHT22;34299;50.820;4.548;2024-03-25T15:01:29;23.60;95.20
11583;DHT22;34299;50.820;4.548;2024-03-25T15:03:55;24.00;94.70
11583;DHT22;34299;50.820;4.548;2024-03-25T15:06:22;23.50;95.00
11583;DHT22;34299;50.820;4.548;2024-03-25T15:08:49;22.80;95.30
11583;DHT22;34299;50.820;4.548;2024-03-25T15:11:15;21.30;96.90
11583;DHT22;34299;50.820;4.548;2024-03-25T15:13:41;21.70;97.20
11583;DHT22;34299;50.820;4.548;2024-03-25T15:16:07;20.40;97.40
11583;DHT22;34299;50.820;4.548;2024-03-25T15:18:33;21.20;97.10
11583;DHT22;34299;50.820;4.548;2024-03-25T15:21:00;21.60;97.30
11583;DHT22;34299;50.820;4.548;2024-03-25T15:23:26;21.90;96.90
11583;DHT22;34299;50.820;4.548;2024-03-25T15:25:54;21.80;96.20
11583;DHT22;34299;50.820;4.548;2024-03-25T15:28:20;21.00;96.80
11583;DHT22;34299;50.820;4.548;2024-03-25T15:30:46;20.60;97.40
11583;DHT22;34299;50.820;4.548;2024-03-25T15:33:12;19.70;97.60
11583;DHT22;34299;50.820;4.548;2024-03-25T15:35:38;19.30;98.00
11583;DHT22;34299;50.820;4.548;2024-03-25T15:38:04;18.10;98.30
11583;DHT22;34299;50.820;4.548;2024-03-25T15:40:30;18.20;98.60
11583;DHT22;34299;50.820;4.548;2024-03-25T15:42:58;17.60;98.60
11583;DHT22;34299;50.820;4.548;2024-03-25T15:46:02;18.00;98.60
11583;DHT22;34299;50.820;4.548;2024-03-25T15:48:28;17.70;99.00
11583;DHT22;34299;50.820;4.548;2024-03-25T15:51:13;17.90;99.30
11583;DHT22;34299;50.820;4.548;2024-03-25T15:53:58;18.00;97.90
11583;DHT22;34299;50.820;4.548;2024-03-25T15:56:24;18.30;97.90
11583;DHT22;34299;50.820;4.548;2024-03-25T16:01:36;18.10;97.50
11583;DHT22;34299;50.820;4.548;2024-03-25T16:07:24;18.10;97.50
11583;DHT22;34299;50.820;4.548;2024-03-25T16:12:35;16.60;97.20
11583;DHT22;34299;50.820;4.548;2024-03-25T16:15:21;16.90;97.90
11583;DHT22;34299;50.820;4.548;2024-03-25T16:21:28;16.80;98.50
11583;DHT22;34299;50.820;4.548;2024-03-25T16:24:31;16.80;97.60
11583;DHT22;34299;50.820;4.548;2024-03-25T16:30:21;16.10;97.80
11583;DHT22;34299;50.820;4.548;2024-03-25T16:33:12;15.70;97.70
11583;DHT22;34299;50.820;4.548;2024-03-25T16:35:57;15.60;97.90
11583;DHT22;34299;50.820;4.548;2024-03-25T16:47:15;14.30;98.50
11583;DHT22;34299;50.820;4.548;2024-03-25T16:50:00;14.30;99.10
11583;DHT22;34299;50.820;4.548;2024-03-25T16:52:26;14.30;99.60
11583;DHT22;34299;50.820;4.548;2024-03-25T16:54:52;14.40;99.90
11583;DHT22;34299;50.820;4.548;2024-03-25T16:57:37;14.60;99.90
11583;DHT22;34299;50.820;4.548;2024-03-25T17:00:21;14.40;99.90
11583;DHT22;34299;50.820;4.548;2024-03-25T17:02:48;14.20;99.90
11583;DHT22;34299;50.820;4.548;2024-03-25T17:05:33;13.50;99.90
11583;DHT22;34299;50.820;4.548;2024-03-25T17:08:00;13.30;99.90
11583;DHT22;34299;50.820;4.548;2024-03-25T17:10:27;13.30;99.90
11583;DHT22;34299;50.820;4.548;2024-03-25T17:12:55;12.50;99.90
11583;DHT22;34299;50.820;4.548;2024-03-25T17:15:58;12.60;99.90
11583;DHT22;34299;50.820;4.548;2024-03-25T17:18:26;12.90;99.90
11583;DHT22;34299;50.820;4.548;2024-03-25T17:21:29;12.60;99.90
11583;DHT22;34299;50.820;4.548;2024-03-25T17:23:55;12.70;99.90
11583;DHT22;34299;50.820;4.548;2024-03-25T17:26:27;12.50;99.90
11583;DHT22;34299;50.820;4.548;2024-03-25T17:29:12;12.60;99.90
11583;DHT22;34299;50.820;4.548;2024-03-25T17:32:15;12.40;99.90
11583;DHT22;34299;50.820;4.548;2024-03-25T17:34:49;11.90;99.90
11583;DHT22;34299;50.820;4.548;2024-03-25T17:37:33;11.90;99.90
11583;DHT22;34299;50.820;4.548;2024-03-25T17:40:18;12.10;99.90
11583;DHT22;34299;50.820;4.548;2024-03-25T17:43:21;12.10;99.90
11583;DHT22;34299;50.820;4.548;2024-03-25T17:45:47;12.70;99.90
11583;DHT22;34299;50.820;4.548;2024-03-25T17:48:32;12.10;99.90
11583;DHT22;34299;50.820;4.548;2024-03-25T17:51:37;11.50;99.90
11583;DHT22;34299;50.820;4.548;2024-03-25T17:54:03;11.30;99.90
11583;DHT22;34299;50.820;4.548;2024-03-25T17:56:29;11.40;99.90
11583;DHT22;34299;50.820;4.548;2024-03-25T18:02:17;11.60;99.90
11583;DHT22;34299;50.820;4.548;2024-03-25T18:05:20;11.60;99.90
11583;DHT22;34299;50.820;4.548;2024-03-25T18:10:32;11.50;99.90
11583;DHT22;34299;50.820;4.548;2024-03-25T18:13:16;11.50;99.90
11583;DHT22;34299;50.820;4.548;2024-03-25T18:19:04;11.30;99.90
11583;DHT22;34299;50.820;4.548;2024-03-25T18:21:30;11.10;99.90
11583;DHT22;34299;50.820;4.548;2024-03-25T18:23:57;10.90;99.90
11583;DHT22;34299;50.820;4.548;2024-03-25T18:26:23;10.90;99.90
11583;DHT22;34299;50.820;4.548;2024-03-25T18:28:50;10.90;99.90
11583;DHT22;34299;50.820;4.548;2024-03-25T18:31:34;10.90;99.90
11583;DHT22;34299;50.820;4.548;2024-03-25T18:34:00;11.00;99.90
11583;DHT22;34299;50.820;4.548;2024-03-25T18:43:30;10.80;99.90
11583;DHT22;34299;50.820;4.548;2024-03-25T18:45:56;10.70;99.90
11583;DHT22;34299;50.820;4.548;2024-03-25T19:44:12;10.40;99.90
11583;DHT22;34299;50.820;4.548;2024-03-25T19:49:25;9.50;99.90
11583;DHT22;34299;50.820;4.548;2024-03-25T19:58:36;9.10;99.90
11583;DHT22;34299;50.820;4.548;2024-03-25T20:01:09;9.30;99.90
11583;DHT22;34299;50.820;4.548;2024-03-25T20:03:36;9.60;99.90
11583;DHT22;34299;50.820;4.548;2024-03-25T20:06:21;9.30;99.90
11583;DHT22;34299;50.820;4.548;2024-03-25T20:08:47;9.20;99.90
11583;DHT22;34299;50.820;4.548;2024-03-25T20:12:09;9.10;99.90
11583;DHT22;34299;50.820;4.548;2024-03-25T20:14:53;9.20;99.90
11583;DHT22;34299;50.820;4.548;2024-03-25T20:20:42;9.30;99.90
11583;DHT22;34299;50.820;4.548;2024-03-25T20:26:48;8.80;99.90
11583;DHT22;34299;50.820;4.548;2024-03-25T20:29:51;8.90;99.90
11583;DHT22;34299;50.820;4.548;2024-03-25T20:32:36;8.70;99.90
11583;DHT22;34299;50.820;4.548;2024-03-25T20:35:20;8.80;99.90
11583;DHT22;34299;50.820;4.548;2024-03-25T20:37:48;8.60;99.90
11583;DHT22;34299;50.820;4.548;2024-03-25T20:43:16;8.80;99.90
11583;DHT22;34299;50.820;4.548;2024-03-25T20:45:43;8.90;99.90
11583;DHT22;34299;50.820;4.548;2024-03-25T20:53:39;9.00;99.90
11583;DHT22;34299;50.820;4.548;2024-03-25T20:56:24;9.00;99.90
11583;DHT22;34299;50.820;4.548;2024-03-25T20:59:27;8.90;99.90
11583;DHT22;34299;50.820;4.548;2024-03-25T21:04:37;8.80;99.90
11583;DHT22;34299;50.820;4.548;2024-03-25T21:07:04;8.80;99.90
11583;DHT22;34299;50.820;4.548;2024-03-25T21:13:11;8.80;99.90
11583;DHT22;34299;50.820;4.548;2024-03-25T21:15:56;8.80;99.90
11583;DHT22;34299;50.820;4.548;2024-03-25T21:18:59;8.70;99.90
11583;DHT22;34299;50.820;4.548;2024-03-25T21:27:12;8.80;99.90
11583;DHT22;34299;50.820;4.548;2024-03-25T21:29:58;8.90;99.90
11583;DHT22;34299;50.820;4.548;2024-03-25T21:35:40;8.60;99.90
11583;DHT22;34299;50.820;4.548;2024-03-25T21:41:46;8.70;99.90
11583;DHT22;34299;50.820;4.548;2024-03-25T21:44:31;8.80;99.90
11583;DHT22;34299;50.820;4.548;2024-03-25T21:47:17;8.60;99.90
11583;DHT22;34299;50.820;4.548;2024-03-25T21:50:02;8.40;99.90
11583;DHT22;34299;50.820;4.548;2024-03-25T21:52:35;8.60;99.90
11583;DHT22;34299;50.820;4.548;2024-03-25T21:55:01;8.70;99.90
11583;DHT22;34299;50.820;4.548;2024-03-25T21:57:45;8.50;99.90
11583;DHT22;34299;50.820;4.548;2024-03-25T22:00:30;8.40;99.90
11583;DHT22;34299;50.820;4.548;2024-03-25T22:03:35;8.50;99.90
11583;DHT22;34299;50.820;4.548;2024-03-25T22:06:01;8.50;99.90
11583;DHT22;34299;50.820;4.548;2024-03-25T22:08:45;8.60;99.90
11583;DHT22;34299;50.820;4.548;2024-03-25T22:14:52;8.50;99.90
11583;DHT22;34299;50.820;4.548;2024-03-25T22:17:36;8.50;99.90
11583;DHT22;34299;50.820;4.548;2024-03-25T22:20:22;8.50;99.90
11583;DHT22;34299;50.820;4.548;2024-03-25T22:26:10;8.30;99.90
11583;DHT22;34299;50.820;4.548;2024-03-25T22:34:43;8.50;99.90
11583;DHT22;34299;50.820;4.548;2024-03-25T22:37:10;8.30;99.90
11583;DHT22;34299;50.820;4.548;2024-03-25T22:39:54;8.40;99.90
11583;DHT22;34299;50.820;4.548;2024-03-25T22:42:58;8.50;99.90
11583;DHT22;34299;50.820;4.548;2024-03-25T22:48:09;8.50;99.90
11583;DHT22;34299;50.820;4.548;2024-03-25T22:57:20;8.50;99.90
11583;DHT22;34299;50.820;4.548;2024-03-25T23:02:49;8.50;99.90
11583;DHT22;34299;50.820;4.548;2024-03-25T23:05:52;8.40;99.90
11583;DHT22;34299;50.820;4.548;2024-03-25T23:08:37;8.50;99.90
11583;DHT22;34299;50.820;4.548;2024-03-25T23:11:05;8.60;99.90
11583;DHT22;34299;50.820;4.548;2024-03-25T23:13:49;8.40;99.90
11583;DHT22;34299;50.820;4.548;2024-03-25T23:16:53;8.30;99.90
11583;DHT22;34299;50.820;4.548;2024-03-25T23:22:04;8.30;99.90
11583;DHT22;34299;50.820;4.548;2024-03-25T23:24:30;8.00;99.90
11583;DHT22;34299;50.820;4.548;2024-03-25T23:30:01;8.00;99.90
11583;DHT22;34299;50.820;4.548;2024-03-25T23:35:49;7.80;99.90
11583;DHT22;34299;50.820;4.548;2024-03-25T23:38:53;7.80;99.90
11583;DHT22;34299;50.820;4.548;2024-03-25T23:41:55;7.80;99.90
11583;DHT22;34299;50.820;4.548;2024-03-25T23:47:44;7.70;99.90
11583;DHT22;34299;50.820;4.548;2024-03-25T23:50:47;7.60;99.90
11583;DHT22;34299;50.820;4.548;2024-03-25T23:53:13;7.70;99.90
11583;DHT22;34299;50.820;4.548;2024-03-25T23:55:39;7.60;99.90
11583;DHT22;34299;50.820;4.548;2024-03-25T23:58:06;7.60;99.90
